Time;durP1;ratioP1;P1;durP2;ratioP2;P2;SDS_P1;SDS_P2;PMS_P1;PMS_P2;Temp;Humidity;BMP_temperature;BMP_pressure;BME280_temperature;BME280_humidity;BME280_pressure;Samples;Min_cycle;Max_cycle;Signal;HPM_P1;HPM_P2
2024/01/01 00:01:39;;;;;;;68.35;51.78;;;19.00;57.00;;;;;;5013021;28;20026;-62
2024/01/01 00:04:05;;;;;;;64.10;49.50;;;19.00;56.90;;;;;;5013365;28;20482;-61
2024/01/01 00:06:31;;;;;;;63.53;49.92;;;19.00;56.80;;;;;;5012761;28;20040;-61
2024/01/01 00:08:57;;;;;;;60.40;45.53;;;19.00;57.00;;;;;;5013089;28;20026;-61
2024/01/01 00:11:23;;;;;;;64.20;49.03;;;19.00;57.10;;;;;;5013270;28;20529;-62
2024/01/01 00:13:48;;;;;;;61.28;47.95;;;19.00;57.00;;;;;;5013086;28;20386;-62
2024/01/01 00:16:14;;;;;;;65.25;48.72;;;19.00;57.00;;;;;;5012842;28;20077;-62
2024/01/01 00:18:41;;;;;;;66.40;51.58;;;19.00;57.20;;;;;;5013052;28;20029;-62
2024/01/01 00:21:08;;;;;;;68.60;55.95;;;19.00;57.10;;;;;;5012921;28;20406;-62
2024/01/01 00:23:33;;;;;;;69.85;55.80;;;19.00;56.80;;;;;;5012809;28;20030;-62
2024/01/01 00:25:59;;;;;;;63.00;51.88;;;19.00;56.80;;;;;;5012634;28;20448;-62
2024/01/01 00:28:25;;;;;;;70.30;53.22;;;19.00;57.00;;;;;;5012769;28;20084;-61
2024/01/01 00:30:51;;;;;;;65.47;52.78;;;19.00;57.10;;;;;;5012748;28;20022;-61
2024/01/01 00:33:17;;;;;;;67.65;54.45;;;19.00;56.80;;;;;;5012728;28;20068;-61
2024/01/01 00:35:44;;;;;;;71.55;54.75;;;19.00;57.00;;;;;;4994994;28;20030;-62
2024/01/01 00:38:10;;;;;;;71.55;56.03;;;18.90;56.80;;;;;;5012521;28;20038;-62
2024/01/01 00:40:37;;;;;;;68.78;52.15;;;19.00;56.60;;;;;;5011058;28;20034;-62
2024/01/01 00:43:03;;;;;;;70.50;53.95;;;18.90;56.90;;;;;;5011301;28;20103;-61
2024/01/01 00:45:29;;;;;;;70.28;52.78;;;18.90;56.50;;;;;;5012256;28;20032;-61
2024/01/01 00:47:55;;;;;;;70.35;54.05;;;18.90;56.70;;;;;;5012427;28;20030;-61
2024/01/01 00:50:20;;;;;;;68.82;54.95;;;18.90;56.70;;;;;;5012390;28;20037;-61
2024/01/01 00:52:46;;;;;;;69.40;52.63;;;18.90;56.60;;;;;;5010614;28;20027;-63
2024/01/01 00:55:12;;;;;;;69.97;54.90;;;19.00;57.00;;;;;;5021468;28;20053;-63
2024/01/01 00:57:38;;;;;;;69.80;54.17;;;19.00;57.10;;;;;;5019557;28;20420;-64
2024/01/01 01:00:05;;;;;;;75.72;53.53;;;19.00;56.80;;;;;;5011013;28;20030;-64
2024/01/01 01:02:31;;;;;;;64.53;51.70;;;19.10;57.00;;;;;;5004857;28;20037;-63
2024/01/01 01:04:57;;;;;;;64.05;50.60;;;19.10;57.10;;;;;;5023490;28;20409;-63
2024/01/01 01:07:22;;;;;;;65.47;51.80;;;19.10;57.10;;;;;;5019684;28;20022;-62
2024/01/01 01:09:48;;;;;;;68.35;49.60;;;19.10;56.70;;;;;;5013049;28;20030;-63
2024/01/01 01:12:16;;;;;;;71.05;50.17;;;19.10;56.60;;;;;;5022975;28;20022;-64
2024/01/01 01:14:43;;;;;;;75.03;49.63;;;19.10;56.80;;;;;;5024410;28;20033;-64
2024/01/01 01:17:08;;;;;;;66.15;51.65;;;19.10;57.10;;;;;;5011769;28;20018;-63
2024/01/01 01:19:34;;;;;;;69.88;49.50;;;19.10;57.10;;;;;;5011780;28;20033;-63
2024/01/01 01:22:00;;;;;;;67.82;49.15;;;19.10;58.00;;;;;;5022749;28;20030;-62
2024/01/01 01:24:26;;;;;;;65.40;50.03;;;19.20;57.30;;;;;;5030777;28;20029;-62
2024/01/01 01:26:52;;;;;;;81.40;51.88;;;19.20;58.70;;;;;;5011496;28;20034;-62
2024/01/01 01:29:18;;;;;;;73.50;50.13;;;19.20;58.30;;;;;;5016231;28;20049;-62
2024/01/01 01:31:46;;;;;;;73.22;50.00;;;19.20;57.90;;;;;;5012354;28;20068;-61
2024/01/01 01:34:12;;;;;;;85.32;49.83;;;19.20;58.70;;;;;;5011537;28;20014;-61
2024/01/01 01:36:38;;;;;;;70.55;47.63;;;19.20;59.10;;;;;;5014474;28;20511;-60
2024/01/01 01:39:04;;;;;;;67.07;47.40;;;19.20;58.50;;;;;;5019858;28;20025;-60
2024/01/01 01:41:30;;;;;;;72.72;48.13;;;19.20;58.40;;;;;;5013416;28;20037;-60
2024/01/01 01:43:56;;;;;;;69.72;48.17;;;19.10;58.30;;;;;;5018744;28;20026;-61
2024/01/01 01:46:22;;;;;;;66.75;46.05;;;19.10;58.20;;;;;;5014232;28;20462;-62
2024/01/01 01:48:48;;;;;;;68.10;43.95;;;19.10;58.20;;;;;;5018068;28;20520;-61
2024/01/01 01:51:14;;;;;;;61.53;45.05;;;19.10;58.10;;;;;;5019880;28;20022;-61
2024/01/01 01:53:41;;;;;;;62.63;44.33;;;19.10;58.10;;;;;;5021753;28;20029;-61
2024/01/01 01:56:07;;;;;;;61.25;43.05;;;19.10;58.10;;;;;;5026112;28;20025;-61
2024/01/01 01:58:34;;;;;;;60.72;43.22;;;19.10;58.00;;;;;;5018994;28;20021;-62
2024/01/01 02:01:00;;;;;;;61.53;43.17;;;19.10;58.10;;;;;;5015034;28;20097;-61
2024/01/01 02:03:26;;;;;;;62.65;42.22;;;19.10;58.10;;;;;;5010422;28;20049;-62
2024/01/01 02:05:54;;;;;;;61.72;42.70;;;19.10;57.80;;;;;;5011950;28;20034;-62
2024/01/01 02:08:22;;;;;;;59.75;41.85;;;19.00;57.70;;;;;;5020264;28;20385;-62
2024/01/01 02:10:48;;;;;;;58.83;40.47;;;19.10;57.70;;;;;;5017958;28;20030;-60
2024/01/01 02:13:28;;;;;;;59.35;40.28;;;19.00;57.60;;;;;;5021282;28;20091;-62
2024/01/01 02:15:55;;;;;;;60.22;40.78;;;19.00;57.60;;;;;;5018905;28;20030;-60
2024/01/01 02:18:21;;;;;;;57.42;39.53;;;19.10;57.60;;;;;;5004526;28;20524;-62
2024/01/01 02:20:48;;;;;;;53.28;38.05;;;19.10;57.60;;;;;;5019371;28;20456;-61
2024/01/01 02:23:15;;;;;;;51.08;38.10;;;19.00;57.50;;;;;;5016986;28;20445;-61
2024/01/01 02:25:41;;;;;;;49.38;36.53;;;19.00;57.50;;;;;;5018829;28;20026;-62
2024/01/01 02:28:07;;;;;;;53.28;37.13;;;19.00;57.40;;;;;;5021661;28;20014;-60
2024/01/01 02:30:33;;;;;;;50.72;36.75;;;19.00;57.30;;;;;;5018534;28;20556;-60
2024/01/01 02:32:59;;;;;;;50.42;36.08;;;19.00;57.30;;;;;;5021876;28;20060;-61
2024/01/01 02:35:24;;;;;;;48.40;35.22;;;19.00;57.20;;;;;;5019203;28;20025;-61
2024/01/01 02:37:50;;;;;;;49.00;36.33;;;19.00;57.20;;;;;;5016082;28;20057;-62
2024/01/01 02:40:16;;;;;;;45.50;34.05;;;19.00;57.10;;;;;;5023950;28;20025;-62
2024/01/01 02:42:43;;;;;;;48.83;35.72;;;19.00;57.20;;;;;;5025050;28;20033;-62
2024/01/01 02:45:09;;;;;;;48.10;34.45;;;19.00;57.10;;;;;;5021721;28;20493;-61
2024/01/01 02:47:35;;;;;;;50.05;33.92;;;19.00;57.20;;;;;;5024948;28;20177;-62
2024/01/01 02:50:01;;;;;;;43.70;33.45;;;19.00;57.10;;;;;;5021487;28;20034;-60
2024/01/01 02:52:26;;;;;;;45.35;34.08;;;19.00;57.00;;;;;;5043425;23;20046;-57
2024/01/01 02:54:52;;;;;;;48.70;32.65;;;19.00;57.00;;;;;;5012252;28;20512;-57
2024/01/01 02:57:18;;;;;;;46.05;33.55;;;19.00;56.90;;;;;;5013909;28;20030;-53
2024/01/01 02:59:44;;;;;;;42.97;31.88;;;19.00;57.00;;;;;;5013387;28;20096;-55
2024/01/01 03:02:12;;;;;;;47.03;31.85;;;19.00;56.80;;;;;;5013522;28;20022;-53
2024/01/01 03:04:38;;;;;;;42.80;31.83;;;19.00;56.80;;;;;;4986407;28;20486;-56
2024/01/01 03:07:04;;;;;;;42.47;31.33;;;19.00;56.70;;;;;;4994473;28;20030;-56
2024/01/01 03:09:30;;;;;;;39.28;29.92;;;19.00;56.60;;;;;;4992738;28;20572;-52
2024/01/01 03:11:55;;;;;;;41.70;30.45;;;19.00;56.50;;;;;;4994481;28;20050;-53
2024/01/01 03:14:21;;;;;;;42.88;30.00;;;19.00;56.50;;;;;;4999346;28;20053;-53
2024/01/01 03:16:47;;;;;;;42.40;29.15;;;19.00;56.40;;;;;;4990680;28;20038;-51
2024/01/01 03:19:13;;;;;;;41.90;29.80;;;19.00;56.50;;;;;;4991628;28;20038;-54
2024/01/01 03:21:38;;;;;;;40.55;28.80;;;19.00;56.40;;;;;;4988288;28;20043;-52
2024/01/01 03:24:04;;;;;;;38.17;28.38;;;19.00;56.40;;;;;;4992434;28;20033;-54
2024/01/01 03:26:30;;;;;;;40.80;28.30;;;19.00;56.30;;;;;;4986974;28;20117;-53
2024/01/01 03:28:56;;;;;;;38.50;28.27;;;19.00;56.30;;;;;;4990011;28;20468;-54
2024/01/01 03:31:22;;;;;;;37.58;27.40;;;19.00;56.30;;;;;;4986829;28;20112;-53
2024/01/01 03:33:47;;;;;;;40.85;27.35;;;19.00;56.20;;;;;;4989741;28;20030;-54
2024/01/01 03:36:13;;;;;;;37.33;26.40;;;19.00;56.30;;;;;;4985468;28;20031;-55
2024/01/01 03:38:39;;;;;;;34.75;26.42;;;19.00;56.30;;;;;;4992868;28;20080;-56
2024/01/01 03:41:05;;;;;;;34.78;24.95;;;19.00;56.90;;;;;;4991886;28;20026;-56
2024/01/01 03:43:30;;;;;;;37.63;26.15;;;18.90;56.30;;;;;;5005227;28;20468;-52
2024/01/01 03:45:56;;;;;;;37.55;25.77;;;18.90;56.20;;;;;;5008187;28;20027;-55
2024/01/01 03:48:22;;;;;;;35.50;25.33;;;19.00;56.30;;;;;;5007237;28;20026;-56
2024/01/01 03:50:48;;;;;;;34.38;25.13;;;18.90;56.20;;;;;;5009667;28;20080;-55
2024/01/01 03:53:14;;;;;;;36.85;27.48;;;19.00;56.30;;;;;;5009424;28;20032;-56
2024/01/01 03:55:39;;;;;;;32.22;24.45;;;19.00;57.20;;;;;;5008213;28;20452;-56
2024/01/01 03:58:05;;;;;;;35.92;24.98;;;19.00;56.70;;;;;;5006982;28;20440;-52
2024/01/01 04:00:31;;;;;;;36.28;27.17;;;19.00;56.70;;;;;;5006835;28;20022;-53
2024/01/01 04:02:57;;;;;;;36.47;26.10;;;19.00;57.30;;;;;;5001303;28;20075;-53
2024/01/01 04:05:23;;;;;;;49.92;26.33;;;19.10;57.40;;;;;;5000092;28;20030;-57
2024/01/01 04:07:48;;;;;;;42.13;27.50;;;19.00;58.10;;;;;;4986801;28;20545;-58
2024/01/01 04:10:14;;;;;;;35.90;27.02;;;19.00;59.00;;;;;;4988791;28;20026;-59
2024/01/01 04:12:40;;;;;;;39.03;27.55;;;19.00;58.90;;;;;;4999929;28;20100;-53
2024/01/01 04:15:06;;;;;;;36.40;26.17;;;18.90;59.20;;;;;;5007024;28;20106;-55
2024/01/01 04:17:32;;;;;;;39.33;26.13;;;19.00;59.60;;;;;;5008000;28;20018;-51
2024/01/01 04:19:58;;;;;;;37.03;26.30;;;19.00;58.90;;;;;;5003103;28;20030;-57
2024/01/01 04:22:24;;;;;;;36.28;24.75;;;18.90;59.30;;;;;;5005260;28;20048;-55
2024/01/01 04:24:50;;;;;;;36.97;27.20;;;18.90;58.00;;;;;;5006307;28;20026;-53
2024/01/01 04:27:15;;;;;;;32.10;23.67;;;19.00;59.10;;;;;;5004025;28;20490;-53
2024/01/01 04:29:41;;;;;;;30.67;23.33;;;18.90;57.60;;;;;;5003820;28;20029;-53
2024/01/01 04:32:07;;;;;;;36.15;24.75;;;18.90;58.00;;;;;;4985012;28;20026;-56
2024/01/01 04:34:33;;;;;;;33.10;23.50;;;18.90;58.80;;;;;;4998425;28;20022;-57
2024/01/01 04:36:59;;;;;;;35.45;22.98;;;18.90;58.20;;;;;;5003916;28;20035;-53
2024/01/01 04:39:24;;;;;;;34.15;24.90;;;18.90;58.10;;;;;;5006100;28;20034;-56
2024/01/01 04:41:50;;;;;;;32.45;23.10;;;18.90;58.80;;;;;;5004968;28;20518;-56
2024/01/01 04:44:16;;;;;;;32.47;22.80;;;18.90;58.00;;;;;;5005289;28;20026;-56
2024/01/01 04:46:42;;;;;;;31.75;22.80;;;19.00;58.60;;;;;;5007646;28;20554;-53
2024/01/01 04:49:07;;;;;;;31.63;22.77;;;18.90;58.60;;;;;;4996171;28;20057;-51
2024/01/01 04:51:33;;;;;;;31.25;22.05;;;19.00;58.40;;;;;;5007265;28;20038;-58
2024/01/01 04:53:59;;;;;;;32.97;22.40;;;19.00;58.10;;;;;;5010909;28;20390;-54
2024/01/01 04:56:24;;;;;;;31.27;22.27;;;18.90;58.00;;;;;;5004845;28;20437;-53
2024/01/01 04:58:53;;;;;;;31.13;21.50;;;18.90;57.50;;;;;;5005390;28;20034;-50
2024/01/01 05:01:19;;;;;;;29.17;21.10;;;19.00;57.50;;;;;;5006084;28;20030;-55
2024/01/01 05:03:45;;;;;;;30.55;22.23;;;19.00;57.30;;;;;;5007140;28;20116;-55
2024/01/01 05:06:11;;;;;;;30.40;20.52;;;19.00;57.60;;;;;;5011717;28;20030;-57
2024/01/01 05:08:36;;;;;;;30.02;20.65;;;19.00;57.50;;;;;;5007573;28;20030;-53
2024/01/01 05:11:05;;;;;;;31.27;21.13;;;19.00;57.30;;;;;;5006188;28;20026;-51
2024/01/01 05:13:31;;;;;;;25.53;19.43;;;19.00;57.80;;;;;;5006282;28;20102;-53
2024/01/01 05:15:57;;;;;;;32.75;22.05;;;19.00;57.30;;;;;;5001803;28;20031;-50
2024/01/01 05:18:23;;;;;;;29.50;20.20;;;19.00;58.20;;;;;;5007088;28;20469;-52
2024/01/01 05:20:48;;;;;;;26.98;20.25;;;19.00;57.10;;;;;;5007859;28;20478;-56
2024/01/01 05:23:14;;;;;;;26.55;20.67;;;19.10;57.20;;;;;;5006711;28;20148;-51
2024/01/01 05:25:40;;;;;;;26.35;19.65;;;19.00;57.30;;;;;;5004974;28;20038;-54
2024/01/01 05:28:08;;;;;;;28.85;19.58;;;19.10;57.20;;;;;;5004253;28;20021;-58
2024/01/01 05:30:37;;;;;;;28.13;19.10;;;19.00;57.10;;;;;;5002205;28;20533;-54
2024/01/01 05:33:03;;;;;;;27.52;18.88;;;19.00;57.20;;;;;;4999548;28;20087;-52
2024/01/01 05:35:28;;;;;;;28.33;19.65;;;19.00;57.10;;;;;;5002096;28;20164;-51
2024/01/01 05:37:55;;;;;;;25.67;18.05;;;19.00;57.30;;;;;;5004272;28;20102;-56
2024/01/01 05:40:21;;;;;;;24.35;18.38;;;19.10;57.00;;;;;;5011624;28;20076;-53
2024/01/01 05:42:46;;;;;;;27.50;18.92;;;19.00;57.10;;;;;;4996379;28;20402;-54
2024/01/01 05:45:12;;;;;;;24.40;17.90;;;19.10;57.30;;;;;;4996620;28;20026;-58
2024/01/01 05:47:38;;;;;;;26.15;17.88;;;19.10;57.10;;;;;;4998254;28;20165;-55
2024/01/01 05:50:04;;;;;;;25.67;17.65;;;19.10;57.20;;;;;;5005221;28;20026;-54
2024/01/01 05:52:30;;;;;;;26.15;18.50;;;19.10;57.30;;;;;;5006184;28;20026;-56
2024/01/01 05:54:55;;;;;;;24.02;17.63;;;19.10;57.30;;;;;;5007791;28;20030;-56
2024/01/01 05:57:21;;;;;;;23.33;17.30;;;19.10;57.40;;;;;;5005295;28;20026;-58
2024/01/01 05:59:47;;;;;;;26.95;18.23;;;19.10;57.50;;;;;;5015332;28;20108;-53
2024/01/01 06:02:13;;;;;;;24.27;17.85;;;19.10;57.60;;;;;;5009484;28;20534;-59
2024/01/01 06:04:39;;;;;;;26.23;17.80;;;19.10;57.50;;;;;;4992118;28;20030;-56
2024/01/01 06:07:04;;;;;;;23.75;16.23;;;19.00;57.80;;;;;;4995583;28;20034;-55
2024/01/01 06:09:30;;;;;;;22.95;17.08;;;19.00;57.50;;;;;;5006601;28;20029;-57
2024/01/01 06:11:56;;;;;;;22.05;16.48;;;19.10;57.60;;;;;;5007809;28;20030;-58
2024/01/01 06:14:22;;;;;;;23.88;16.20;;;19.00;57.60;;;;;;5014720;28;20061;-54
2024/01/01 06:16:47;;;;;;;25.75;16.50;;;19.10;57.60;;;;;;5010005;28;20054;-54
2024/01/01 06:19:13;;;;;;;23.20;16.90;;;19.00;57.50;;;;;;5008637;28;20072;-53
2024/01/01 06:21:39;;;;;;;24.75;16.20;;;19.10;57.60;;;;;;5008071;28;20034;-56
2024/01/01 06:24:05;;;;;;;24.92;16.98;;;19.10;57.60;;;;;;5005221;28;20397;-52
2024/01/01 06:26:31;;;;;;;22.23;15.95;;;19.10;57.70;;;;;;4999179;28;20038;-50
2024/01/01 06:28:57;;;;;;;25.48;16.75;;;19.00;57.60;;;;;;5009966;28;20033;-56
2024/01/01 06:31:23;;;;;;;22.52;15.77;;;19.00;57.60;;;;;;5002509;28;20064;-55
2024/01/01 06:33:48;;;;;;;26.10;16.17;;;19.00;57.60;;;;;;4999631;28;20030;-58
2024/01/01 06:36:14;;;;;;;22.17;14.93;;;19.10;57.70;;;;;;4988394;28;20056;-55
2024/01/01 06:38:40;;;;;;;22.15;15.73;;;19.10;57.60;;;;;;4989265;28;20522;-52
2024/01/01 06:41:06;;;;;;;23.13;16.17;;;19.10;57.80;;;;;;5002729;28;20033;-50
2024/01/01 06:43:33;;;;;;;22.25;15.85;;;19.10;57.70;;;;;;4998915;28;20568;-55
2024/01/01 06:45:59;;;;;;;22.10;15.35;;;19.10;57.80;;;;;;4994456;28;20026;-57
2024/01/01 06:48:25;;;;;;;21.15;14.88;;;19.10;57.80;;;;;;4995513;28;20026;-55
2024/01/01 06:50:51;;;;;;;22.08;14.68;;;19.10;57.80;;;;;;5003955;28;20481;-53
2024/01/01 06:53:17;;;;;;;21.55;14.82;;;19.00;57.60;;;;;;5008882;28;20120;-59
2024/01/01 06:55:42;;;;;;;21.80;14.45;;;19.10;57.70;;;;;;4993718;28;20035;-57
2024/01/01 06:58:08;;;;;;;23.35;15.07;;;19.10;57.70;;;;;;5005714;28;20041;-58
2024/01/01 07:00:34;;;;;;;22.67;15.30;;;19.00;58.00;;;;;;5006513;28;20030;-55
2024/01/01 07:03:00;;;;;;;22.60;14.45;;;19.10;57.60;;;;;;4994992;28;20022;-56
2024/01/01 07:05:28;;;;;;;20.25;14.05;;;19.00;57.70;;;;;;5005491;28;20115;-53
2024/01/01 07:07:55;;;;;;;20.50;14.05;;;19.00;57.60;;;;;;4989917;28;20022;-56
2024/01/01 07:10:20;;;;;;;20.10;13.25;;;19.00;57.60;;;;;;4988078;28;20023;-56
2024/01/01 07:12:46;;;;;;;20.15;13.80;;;19.00;57.50;;;;;;5000631;28;20037;-54
2024/01/01 07:15:12;;;;;;;20.80;14.20;;;19.10;58.10;;;;;;5007073;28;20026;-52
2024/01/01 07:17:38;;;;;;;21.13;12.13;;;19.10;57.70;;;;;;5007403;28;20033;-56
2024/01/01 07:20:04;;;;;;;22.77;12.43;;;19.10;56.40;;;;;;5003595;28;20093;-59
2024/01/01 07:22:30;;;;;;;25.88;13.07;;;19.10;57.00;;;;;;5004522;28;20025;-54
2024/01/01 07:24:56;;;;;;;18.95;12.65;;;19.00;57.70;;;;;;5004812;28;20029;-54
2024/01/01 07:27:22;;;;;;;19.50;12.63;;;19.00;57.50;;;;;;5010122;28;20482;-58
2024/01/01 07:29:48;;;;;;;18.20;11.95;;;19.10;58.00;;;;;;4998879;28;20477;-53
2024/01/01 07:32:13;;;;;;;18.17;11.82;;;19.00;58.10;;;;;;4994100;28;20026;-57
2024/01/01 07:34:39;;;;;;;20.30;11.02;;;19.00;58.10;;;;;;4992689;28;20045;-55
2024/01/01 07:37:05;;;;;;;18.73;11.55;;;19.00;57.80;;;;;;4994533;28;20034;-57
2024/01/01 07:39:31;;;;;;;20.75;11.65;;;19.00;57.60;;;;;;4987594;28;20582;-53
2024/01/01 07:41:58;;;;;;;19.73;12.13;;;19.00;57.20;;;;;;4995290;28;20038;-55
2024/01/01 07:44:23;;;;;;;15.70;10.60;;;19.10;57.50;;;;;;4996939;28;20041;-58
2024/01/01 07:46:49;;;;;;;17.00;10.43;;;19.00;57.30;;;;;;4985906;28;20038;-52
2024/01/01 07:49:16;;;;;;;16.20;10.63;;;19.00;57.20;;;;;;4993383;28;20640;-54
2024/01/01 07:51:42;;;;;;;17.23;10.68;;;19.00;57.20;;;;;;4986873;28;20062;-57
2024/01/01 07:54:07;;;;;;;18.13;10.55;;;19.00;57.10;;;;;;4996371;28;20505;-56
2024/01/01 07:56:36;;;;;;;20.63;10.77;;;19.00;56.90;;;;;;5013353;28;20022;-55
2024/01/01 07:59:02;;;;;;;15.05;10.13;;;19.10;57.00;;;;;;5009831;28;20053;-57
2024/01/01 08:01:27;;;;;;;18.15;10.60;;;19.10;57.10;;;;;;4996307;28;20064;-58
2024/01/01 08:03:53;;;;;;;17.77;10.60;;;19.10;57.00;;;;;;4988119;28;20153;-55
2024/01/01 08:06:20;;;;;;;17.63;10.88;;;19.10;57.10;;;;;;4998282;28;20030;-55
2024/01/01 08:08:46;;;;;;;21.48;11.18;;;19.10;57.00;;;;;;4998824;28;20019;-56
2024/01/01 08:11:12;;;;;;;21.55;10.95;;;19.10;57.00;;;;;;4979682;28;20077;-57
2024/01/01 08:13:37;;;;;;;20.85;11.10;;;19.10;57.10;;;;;;4988617;28;20030;-56
2024/01/01 08:16:04;;;;;;;26.08;11.68;;;19.10;57.00;;;;;;5006122;28;20030;-53
2024/01/01 08:18:29;;;;;;;21.15;11.10;;;19.10;57.30;;;;;;5001746;28;20027;-58
2024/01/01 08:20:55;;;;;;;21.13;11.95;;;19.10;57.20;;;;;;5005832;28;20105;-55
2024/01/01 08:23:21;;;;;;;22.52;11.75;;;19.10;57.40;;;;;;4996550;28;20017;-56
2024/01/01 08:25:47;;;;;;;20.25;11.45;;;19.10;57.40;;;;;;4980204;28;20035;-58
2024/01/01 08:28:12;;;;;;;21.88;11.35;;;19.10;57.40;;;;;;5009602;28;20378;-56
2024/01/01 08:30:39;;;;;;;23.17;12.32;;;19.10;57.40;;;;;;4996846;28;20033;-55
2024/01/01 08:33:06;;;;;;;21.20;11.38;;;19.10;57.40;;;;;;5003367;28;20030;-56
2024/01/01 08:35:31;;;;;;;23.20;11.55;;;19.10;57.40;;;;;;4992131;28;20025;-54
2024/01/01 08:37:57;;;;;;;22.42;11.73;;;19.20;57.40;;;;;;5005358;28;20520;-54
2024/01/01 08:40:23;;;;;;;24.90;11.05;;;19.10;57.50;;;;;;4987513;28;20037;-58
2024/01/01 08:42:50;;;;;;;20.20;11.25;;;19.20;57.60;;;;;;4996547;28;20433;-55
2024/01/01 08:45:19;;;;;;;22.35;11.13;;;19.10;57.40;;;;;;4989628;28;20029;-54
2024/01/01 08:47:46;;;;;;;27.30;11.45;;;19.10;57.40;;;;;;4996266;28;20026;-53
2024/01/01 08:50:13;;;;;;;28.00;10.80;;;19.20;57.30;;;;;;4984995;28;20033;-56
2024/01/01 08:52:39;;;;;;;20.95;9.90;;;19.10;57.30;;;;;;4992460;28;20054;-56
2024/01/01 08:55:05;;;;;;;21.05;10.32;;;19.10;57.40;;;;;;5018982;23;20054;-62
2024/01/01 08:57:31;;;;;;;22.77;10.82;;;19.20;57.60;;;;;;4998473;28;20024;-62
2024/01/01 08:59:57;;;;;;;22.67;10.82;;;19.10;57.40;;;;;;4999263;28;20030;-61
2024/01/01 09:02:23;;;;;;;19.63;9.73;;;19.10;57.30;;;;;;5006950;28;20080;-62
2024/01/01 09:04:48;;;;;;;22.77;10.43;;;19.20;57.40;;;;;;5011704;28;20105;-61
2024/01/01 09:07:14;;;;;;;22.60;10.68;;;19.20;57.40;;;;;;4999608;28;20165;-60
2024/01/01 09:09:40;;;;;;;24.33;10.23;;;19.20;57.50;;;;;;4992386;28;20077;-62
2024/01/01 09:12:07;;;;;;;20.60;10.38;;;19.20;57.60;;;;;;4998544;28;20502;-61
2024/01/01 09:14:34;;;;;;;21.42;10.07;;;19.20;57.60;;;;;;5000914;28;20027;-61
2024/01/01 09:17:00;;;;;;;22.50;10.82;;;19.20;57.60;;;;;;4999225;28;20037;-62
2024/01/01 09:19:26;;;;;;;19.88;9.95;;;19.20;58.80;;;;;;5005649;28;20037;-62
2024/01/01 09:21:51;;;;;;;31.27;10.82;;;19.30;59.00;;;;;;4997459;28;20022;-59
2024/01/01 09:24:17;;;;;;;21.05;9.70;;;19.30;59.80;;;;;;4996233;28;20493;-61
2024/01/01 09:26:43;;;;;;;21.67;10.05;;;19.30;58.60;;;;;;4995245;28;20030;-61
2024/01/01 09:29:08;;;;;;;24.67;9.80;;;19.30;59.00;;;;;;4997815;28;20068;-59
2024/01/01 09:31:35;;;;;;;24.52;10.10;;;19.30;59.00;;;;;;4995001;28;20732;-61
2024/01/01 09:34:03;;;;;;;19.48;9.95;;;19.30;60.20;;;;;;4994591;28;20018;-61
2024/01/01 09:36:29;;;;;;;23.50;10.15;;;19.40;59.30;;;;;;4975705;28;20081;-58
2024/01/01 09:38:55;;;;;;;20.13;10.05;;;19.40;60.40;;;;;;4994902;28;20026;-63
2024/01/01 09:41:25;;;;;;;22.88;11.10;;;19.50;60.50;;;;;;4981394;28;20030;-61
2024/01/01 09:43:52;;;;;;;;;;;19.50;60.90;;;;;;4992430;28;20026;-61
2024/01/01 09:46:18;;;;;;;24.40;11.88;;;19.60;62.90;;;;;;4991676;28;19914;-63
2024/01/01 09:48:45;;;;;;;27.08;10.65;;;19.60;63.50;;;;;;4998256;28;20026;-61
2024/01/01 09:51:10;;;;;;;22.80;10.75;;;19.60;63.20;;;;;;4999149;28;20049;-63
2024/01/01 09:53:37;;;;;;;25.50;10.50;;;19.60;63.00;;;;;;4988814;28;20490;-66
2024/01/01 09:56:03;;;;;;;26.35;10.35;;;19.60;62.60;;;;;;4999503;28;20400;-66
2024/01/01 09:58:42;;;;;;;30.00;9.95;;;19.70;63.70;;;;;;4999397;28;20026;-63
2024/01/01 10:01:10;;;;;;;21.75;10.18;;;19.60;62.70;;;;;;4998961;28;20045;-61
2024/01/01 10:03:36;;;;;;;22.75;10.68;;;19.60;62.80;;;;;;5000417;28;20034;-64
2024/01/01 10:06:10;;;;;;;37.08;10.57;;;19.70;62.80;;;;;;4992462;28;20069;-60
2024/01/01 10:08:36;;;;;;;29.60;9.35;;;19.70;62.70;;;;;;5002571;28;20085;-61
2024/01/01 10:11:19;;;;;;;34.33;9.50;;;19.60;61.10;;;;;;5009522;28;20065;-61
2024/01/01 10:13:45;;;;;;;21.77;8.57;;;19.60;61.70;;;;;;5009460;28;20119;-62
2024/01/01 10:16:25;;;;;;;34.60;9.73;;;19.50;61.70;;;;;;5009277;28;20037;-62
2024/01/01 10:18:56;;;;;;;22.92;9.02;;;19.50;61.80;;;;;;5009896;28;20042;-61
2024/01/01 10:21:32;;;;;;;23.02;8.77;;;19.40;61.80;;;;;;5009558;28;20034;-60
2024/01/01 10:24:21;;;;;;;20.55;9.15;;;19.40;61.70;;;;;;5009702;28;20405;-62
2024/01/01 10:26:48;;;;;;;24.25;8.80;;;19.40;61.70;;;;;;5011219;28;20127;-59
2024/01/01 10:29:15;;;;;;;22.05;8.70;;;19.30;61.70;;;;;;5011177;28;20026;-61
2024/01/01 10:31:45;;;;;;;24.52;8.57;;;19.30;61.40;;;;;;5011141;28;20108;-60
2024/01/01 10:34:12;;;;;;;20.45;8.18;;;19.30;61.60;;;;;;5010987;28;20026;-61
2024/01/01 10:36:42;;;;;;;19.30;8.02;;;19.30;61.30;;;;;;4993736;28;20422;-62
2024/01/01 10:39:09;;;;;;;26.83;9.05;;;19.30;61.20;;;;;;5011329;28;20037;-60
2024/01/01 10:41:36;;;;;;;24.08;8.25;;;19.30;61.30;;;;;;5010993;28;20034;-62
2024/01/01 10:44:09;;;;;;;18.08;8.25;;;19.30;61.20;;;;;;5011019;28;20478;-62
2024/01/01 10:46:45;;;;;;;22.17;7.95;;;19.30;61.00;;;;;;5014324;28;20037;-61
2024/01/01 10:49:16;;;;;;;17.88;7.32;;;19.30;61.00;;;;;;5014678;28;20026;-61
2024/01/01 10:52:12;;;;;;;20.60;7.70;;;19.30;61.00;;;;;;5014583;28;20101;-61
2024/01/01 10:54:54;;;;;;;17.42;7.88;;;19.30;60.80;;;;;;5005881;28;20096;-61
2024/01/01 10:57:53;;;;;;;19.88;7.60;;;19.30;60.70;;;;;;5014597;28;20042;-61
2024/01/01 11:00:45;;;;;;;17.88;8.20;;;19.30;60.70;;;;;;5014329;28;20054;-61
2024/01/01 11:03:15;;;;;;;21.20;7.38;;;19.30;60.70;;;;;;4986552;28;20092;-61
2024/01/01 11:05:41;;;;;;;20.92;7.05;;;19.30;60.30;;;;;;5014030;28;20517;-61
2024/01/01 11:08:07;;;;;;;22.58;7.68;;;19.30;60.20;;;;;;5014401;28;20058;-61
2024/01/01 11:10:49;;;;;;;19.55;8.20;;;19.20;60.10;;;;;;5014455;28;20053;-62
2024/01/01 11:13:35;;;;;;;16.35;7.15;;;19.30;60.10;;;;;;5013886;28;20034;-62
2024/01/01 11:16:05;;;;;;;14.00;6.47;;;19.20;60.20;;;;;;5003564;28;20057;-61
2024/01/01 11:18:34;;;;;;;18.95;7.60;;;19.20;60.10;;;;;;5014043;28;20101;-62
2024/01/01 11:21:09;;;;;;;15.35;7.72;;;19.20;59.80;;;;;;5013960;28;20188;-61
2024/01/01 11:23:48;;;;;;;15.82;7.45;;;19.20;59.80;;;;;;5013940;28;20034;-61
2024/01/01 11:26:23;;;;;;;16.42;7.30;;;19.20;59.90;;;;;;5013565;28;20470;-61
2024/01/01 11:28:57;;;;;;;13.95;6.63;;;19.20;59.80;;;;;;5013840;28;20034;-61
2024/01/01 11:31:26;;;;;;;16.30;7.20;;;19.20;59.80;;;;;;5013918;28;20505;-61
2024/01/01 11:33:58;;;;;;;;;;;19.20;59.60;;;;;;5014343;28;20076;-60
2024/01/01 11:36:25;;;;;;;11.95;6.38;;;19.20;59.70;;;;;;5013495;28;19920;-60
2024/01/01 11:38:51;;;;;;;17.92;7.88;;;19.20;59.60;;;;;;5013749;28;20092;-60
2024/01/01 11:41:27;;;;;;;13.95;6.80;;;19.20;59.40;;;;;;5013816;28;20026;-61
2024/01/01 11:43:54;;;;;;;12.70;6.70;;;19.20;59.30;;;;;;4996043;28;20037;-62
2024/01/01 11:46:26;;;;;;;15.10;7.00;;;19.20;59.60;;;;;;5013139;28;20034;-61
2024/01/01 11:49:10;;;;;;;12.30;6.30;;;19.20;59.30;;;;;;5013615;28;20096;-61
2024/01/01 11:51:57;;;;;;;14.75;7.20;;;19.20;59.30;;;;;;5013545;28;20049;-62
2024/01/01 11:54:27;;;;;;;14.38;6.50;;;19.20;59.20;;;;;;4979394;28;20056;-62
2024/01/01 11:56:56;;;;;;;16.48;6.85;;;19.20;59.40;;;;;;5013054;28;20025;-61
2024/01/01 11:59:24;;;;;;;12.10;6.07;;;19.20;59.30;;;;;;4995849;28;20527;-61
2024/01/01 12:01:50;;;;;;;13.73;6.70;;;19.20;59.30;;;;;;5013404;28;20381;-61
2024/01/01 12:04:17;;;;;;;11.73;5.70;;;19.20;59.10;;;;;;5013128;28;20037;-62
2024/01/01 12:06:49;;;;;;;13.43;6.40;;;19.10;59.10;;;;;;5013063;28;20030;-62
2024/01/01 12:09:15;;;;;;;12.35;6.18;;;19.20;59.10;;;;;;5013403;28;20022;-62
2024/01/01 12:11:43;;;;;;;11.43;5.80;;;19.20;59.20;;;;;;5013152;28;20036;-61
2024/01/01 12:14:09;;;;;;;11.45;6.07;;;19.20;59.20;;;;;;4995284;28;20025;-62
2024/01/01 12:16:36;;;;;;;13.45;6.20;;;19.20;58.90;;;;;;5012746;28;20382;-61
2024/01/01 12:19:09;;;;;;;12.45;5.88;;;19.20;59.20;;;;;;5012971;28;20117;-62
2024/01/01 12:21:43;;;;;;;12.82;5.88;;;19.20;59.20;;;;;;5012989;28;20034;-61
2024/01/01 12:24:14;;;;;;;12.93;6.43;;;19.20;59.00;;;;;;5012903;28;20109;-61
2024/01/01 12:26:40;;;;;;;12.20;6.13;;;19.20;58.90;;;;;;5012574;28;20052;-61
2024/01/01 12:29:16;;;;;;;12.70;6.55;;;19.20;59.70;;;;;;5012931;28;20046;-61
2024/01/01 12:31:45;;;;;;;11.30;5.60;;;19.20;58.80;;;;;;5012782;28;20030;-61